Time;durP1;ratioP1;P1;durP2;ratioP2;P2;SDS_P1;SDS_P2;PMS_P1;PMS_P2;Temp;Humidity;BMP_temperature;BMP_pressure;BME280_temperature;BME280_humidity;BME280_pressure;Samples;Min_cycle;Max_cycle;Signal;HPM_P1;HPM_P2
2019/12/13 00:02:03;;;;;;;4.9;4.2;;;;;;;1.35;74.50195;937.4758;;;;
2019/12/13 00:04:28;;;;;;;5.5;4.6;;;;;;;1.28;74.22656;937.415;;;;
2019/12/13 00:06:53;;;;;;;5.9;4.8;;;;;;;1.32;74.07324;937.3494;;;;
2019/12/13 00:09:19;;;;;;;6.2;4.6;;;;;;;1.37;73.77246;937.2673;;;;
2019/12/13 00:11:44;;;;;;;4.8;4;;;;;;;1.28;73.5957;937.2081;;;;
2019/12/13 00:14:09;;;;;;;4.2;3.7;;;;;;;1.2;74.13184;937.1376;;;;
2019/12/13 00:16:34;;;;;;;3.7;3.1;;;;;;;1;74.28125;937.0193;;;;
2019/12/13 00:18:59;;;;;;;4.6;3.3;;;;;;;0.93;74.50977;936.9754;;;;
2019/12/13 00:21:24;;;;;;;3.7;3;;;;;;;0.78;75.11328;936.8798;;;;
2019/12/13 00:23:49;;;;;;;3.2;2.8;;;;;;;0.87;75.07227;936.837;;;;
2019/12/13 00:26:14;;;;;;;4.4;3.1;;;;;;;0.92;74.74902;936.7513;;;;
2019/12/13 00:28:40;;;;;;;4.2;2.9;;;;;;;0.81;75.0498;936.6322;;;;
2019/12/13 00:31:05;;;;;;;3.6;2.5;;;;;;;0.9;74.81152;936.5724;;;;
2019/12/13 00:33:30;;;;;;;3.6;2.4;;;;;;;0.93;74.93262;936.5909;;;;
2019/12/13 00:35:55;;;;;;;4;2.3;;;;;;;1.06;74.29102;936.4419;;;;
2019/12/13 00:38:20;;;;;;;3.6;2.1;;;;;;;1.13;74.24609;936.3461;;;;
2019/12/13 00:40:53;;;;;;;2.2;1.8;;;;;;;0.98;74.71191;936.1916;;;;
2019/12/13 00:43:17;;;;;;;3.1;2;;;;;;;0.93;75.11719;935.9768;;;;
2019/12/13 00:45:45;;;;;;;3.4;2.3;;;;;;;0.67;75.91797;935.9303;;;;
2019/12/13 00:48:01;;;;;;;3.5;2.3;;;;;;;0.7;75.97949;935.8585;;;;
2019/12/13 00:50:26;;;;;;;4.1;2.6;;;;;;;0.61;76.36426;935.883;;;;
2019/12/13 00:52:51;;;;;;;4.3;2.9;;;;;;;0.63;76.73438;935.8859;;;;
2019/12/13 00:55:16;;;;;;;4;3.1;;;;;;;0.66;76.625;935.8286;;;;
2019/12/13 00:57:41;;;;;;;4.6;3.4;;;;;;;0.65;76.47363;935.9131;;;;
2019/12/13 01:00:06;;;;;;;3.6;3;;;;;;;0.75;76.41309;935.7967;;;;
2019/12/13 01:02:41;;;;;;;3.9;3.1;;;;;;;0.72;76.30371;935.8024;;;;
2019/12/13 01:07:25;;;;;;;3.6;2.9;;;;;;;0.71;76.02832;935.7215;;;;
2019/12/13 01:09:49;;;;;;;4.9;2.7;;;;;;;0.72;75.93848;935.6805;;;;
2019/12/13 01:12:12;;;;;;;3.7;2.9;;;;;;;0.87;75.75781;935.6021;;;;
2019/12/13 01:14:37;;;;;;;3.4;2.6;;;;;;;0.77;75.68164;935.4825;;;;
2019/12/13 01:17:02;;;;;;;3.4;2.7;;;;;;;0.79;75.8125;935.4236;;;;
2019/12/13 01:19:27;;;;;;;2.9;2.6;;;;;;;0.8;75.71191;935.3791;;;;
2019/12/13 01:21:52;;;;;;;4.7;2.8;;;;;;;0.91;75.27441;935.2868;;;;
2019/12/13 01:24:17;;;;;;;3.6;2.8;;;;;;;0.98;74.86133;935.3248;;;;
2019/12/13 01:26:42;;;;;;;3.4;2.8;;;;;;;0.89;75.16504;935.3345;;;;
2019/12/13 01:29:07;;;;;;;3.5;2.8;;;;;;;1.01;74.61426;935.3199;;;;
2019/12/13 01:31:33;;;;;;;3.6;2.9;;;;;;;1.25;74.01465;935.3444;;;;
2019/12/13 01:33:58;;;;;;;3.7;2.8;;;;;;;1.36;73.65527;935.327;;;;
2019/12/13 01:36:23;;;;;;;2.9;2.5;;;;;;;1.37;72.94727;935.2431;;;;
2019/12/13 01:38:51;;;;;;;3.9;2.6;;;;;;;1.48;72.86035;935.1217;;;;
2019/12/13 01:41:20;;;;;;;4;2.9;;;;;;;1.44;72.91113;935.0533;;;;
2019/12/13 01:43:54;;;;;;;3.9;2.9;;;;;;;1.35;73.26465;934.9405;;;;
2019/12/13 01:48:30;;;;;;;4.2;3.2;;;;;;;1.38;73.41699;934.9186;;;;
2019/12/13 01:50:54;;;;;;;4.6;3.2;;;;;;;1.45;73.05078;934.838;;;;
2019/12/13 01:53:19;;;;;;;3.4;2.9;;;;;;;1.33;73.31738;934.8702;;;;
2019/12/13 01:55:44;;;;;;;3.1;2.7;;;;;;;1.07;73.7666;934.7397;;;;
2019/12/13 01:58:09;;;;;;;3.5;2.6;;;;;;;1.25;73.63477;934.6886;;;;
2019/12/13 02:00:34;;;;;;;3.2;2.5;;;;;;;1.28;73.46875;934.6606;;;;
2019/12/13 02:02:59;;;;;;;3.7;2.8;;;;;;;0.93;74.85156;934.6312;;;;
2019/12/13 02:05:24;;;;;;;3.9;2.7;;;;;;;0.91;74.99609;934.56;;;;
2019/12/13 02:07:49;;;;;;;2.8;2.5;;;;;;;1.09;74.55859;934.5316;;;;
2019/12/13 02:10:15;;;;;;;3.4;2.6;;;;;;;1.11;74.25391;934.4902;;;;
2019/12/13 02:12:40;;;;;;;3.7;2.6;;;;;;;1.25;73.87598;934.4836;;;;
2019/12/13 02:15:05;;;;;;;3.4;2.9;;;;;;;1.26;73.87891;934.4631;;;;
2019/12/13 02:17:30;;;;;;;3.3;2.6;;;;;;;1.28;73.8252;934.3775;;;;
2019/12/13 02:19:55;;;;;;;3.3;3;;;;;;;1.22;73.96289;934.1789;;;;
2019/12/13 02:22:20;;;;;;;4.5;2.8;;;;;;;1.25;74.15234;934.0699;;;;
2019/12/13 02:24:46;;;;;;;3.8;3.1;;;;;;;1;74.7168;934.0386;;;;
2019/12/13 02:27:11;;;;;;;4.5;3.2;;;;;;;0.88;75.58789;934.0109;;;;
2019/12/13 02:29:36;;;;;;;4.1;3.1;;;;;;;1.02;75.46387;933.8472;;;;
2019/12/13 02:32:01;;;;;;;4;3;;;;;;;0.84;75.81055;933.756;;;;
2019/12/13 02:34:26;;;;;;;4;2.9;;;;;;;0.82;75.86328;933.7173;;;;
2019/12/13 02:36:51;;;;;;;3.9;3.1;;;;;;;0.81;76.32129;933.6531;;;;
2019/12/13 02:39:17;;;;;;;4.6;3.3;;;;;;;0.82;76.21777;933.4838;;;;
2019/12/13 02:41:42;;;;;;;3.9;3.1;;;;;;;1.02;75.7959;933.3639;;;;
2019/12/13 02:44:07;;;;;;;3.6;2.9;;;;;;;0.98;76.09863;933.3036;;;;
2019/12/13 02:46:32;;;;;;;4.1;3.2;;;;;;;1.14;75.43945;933.2861;;;;
2019/12/13 02:48:57;;;;;;;3.8;3.1;;;;;;;1.36;74.88379;933.3376;;;;
2019/12/13 02:51:22;;;;;;;4.7;3.1;;;;;;;1.39;74.36133;933.5884;;;;
2019/12/13 02:53:48;;;;;;;3.4;3;;;;;;;1.3;75.50195;933.8279;;;;
2019/12/13 02:56:13;;;;;;;5.9;3.4;;;;;;;1.36;75.33008;933.713;;;;
2019/12/13 02:58:38;;;;;;;3.9;3.2;;;;;;;1.36;75.82422;933.7402;;;;
2019/12/13 03:01:03;;;;;;;3.5;3.2;;;;;;;1.34;76.20801;933.8184;;;;
2019/12/13 03:03:28;;;;;;;4.5;3.3;;;;;;;1.39;75.06055;933.7809;;;;
2019/12/13 03:05:55;;;;;;;4.1;3.2;;;;;;;1.4;75.26758;933.6894;;;;
2019/12/13 03:08:19;;;;;;;3.8;2.8;;;;;;;1.48;74.83496;933.5966;;;;
2019/12/13 03:10:44;;;;;;;3.6;3;;;;;;;1.54;74.74316;933.5424;;;;
2019/12/13 03:13:09;;;;;;;3.7;2.7;;;;;;;1.55;74.57227;933.5083;;;;
2019/12/13 03:15:44;;;;;;;3.6;2.9;;;;;;;1.6;73.90332;933.4786;;;;
2019/12/13 03:18:09;;;;;;;3.6;2.7;;;;;;;1.43;75.11328;933.4331;;;;
2019/12/13 03:20:44;;;;;;;3.4;2.6;;;;;;;1.59;74.91113;933.277;;;;
2019/12/13 03:22:50;;;;;;;4.5;2.8;;;;;;;1.5;75.27441;933.1551;;;;
2019/12/13 03:25:15;;;;;;;3.3;2.7;;;;;;;1.38;75.44922;933.0175;;;;
2019/12/13 03:27:40;;;;;;;5.1;3;;;;;;;1.38;75.79297;932.7597;;;;
2019/12/13 03:30:05;;;;;;;9.9;6.8;;;;;;;1.31;76.21484;932.5438;;;;
2019/12/13 03:32:30;;;;;;;5.5;3.7;;;;;;;1.28;76.29102;932.307;;;;
2019/12/13 03:34:55;;;;;;;9.5;5.7;;;;;;;1.18;76.58105;932.1704;;;;
2019/12/13 03:37:21;;;;;;;8.9;5.2;;;;;;;1.33;75.96777;932.0943;;;;
2019/12/13 03:39:46;;;;;;;7.2;4.2;;;;;;;1.44;75.27637;932.074;;;;
2019/12/13 03:42:11;;;;;;;4.7;3.2;;;;;;;1.56;74.87109;932.0167;;;;
2019/12/13 03:44:38;;;;;;;3;2.6;;;;;;;1.65;74.73828;931.8588;;;;
2019/12/13 03:47:03;;;;;;;2.7;2.3;;;;;;;1.61;74.75586;931.8211;;;;
2019/12/13 03:49:28;;;;;;;3.3;2.5;;;;;;;1.67;74.27148;931.7488;;;;
2019/12/13 03:51:53;;;;;;;12.2;6;;;;;;;1.53;75.16406;931.6066;;;;
2019/12/13 03:54:18;;;;;;;5.4;3.6;;;;;;;1.01;76.91797;931.6989;;;;
2019/12/13 03:56:43;;;;;;;4.2;3;;;;;;;0.68;78.37988;931.595;;;;
2019/12/13 03:59:08;;;;;;;3.8;3.1;;;;;;;0.68;78.84961;931.5422;;;;
2019/12/13 04:02:26;;;;;;;4;3.3;;;;;;;0.64;78.69531;931.5883;;;;
2019/12/13 04:04:51;;;;;;;3.7;3.3;;;;;;;0.54;79.2373;931.639;;;;
2019/12/13 04:07:17;;;;;;;4.5;3.8;;;;;;;0.55;79.33008;931.6214;;;;
2019/12/13 04:09:42;;;;;;;4.1;3.5;;;;;;;0.67;79.15918;931.5618;;;;
2019/12/13 04:12:07;;;;;;;4.5;3.9;;;;;;;0.83;78.62695;931.6161;;;;
2019/12/13 04:14:32;;;;;;;4.3;3.7;;;;;;;0.76;78.6709;931.5958;;;;
2019/12/13 04:16:57;;;;;;;4.6;3.7;;;;;;;0.93;78.12891;931.6454;;;;
2019/12/13 04:21:54;;;;;;;3.9;3.3;;;;;;;1.43;76.58301;931.6306;;;;
2019/12/13 04:24:19;;;;;;;4.7;3.6;;;;;;;1.62;76.07715;931.5115;;;;
2019/12/13 04:26:44;;;;;;;4.2;3.5;;;;;;;1.68;75.60449;931.5641;;;;
2019/12/13 04:29:09;;;;;;;3.8;3.4;;;;;;;1.65;75.50781;931.6275;;;;
2019/12/13 04:31:35;;;;;;;3.7;3.3;;;;;;;1.72;74.91211;931.6085;;;;
2019/12/13 04:33:59;;;;;;;4;3.4;;;;;;;1.7;75.27441;931.6414;;;;
2019/12/13 04:36:24;;;;;;;4.4;3.3;;;;;;;1.49;76.21387;931.6003;;;;
2019/12/13 04:38:50;;;;;;;4.2;3.7;;;;;;;1.41;76.34863;931.5667;;;;
2019/12/13 04:41:15;;;;;;;4.4;3.9;;;;;;;1.38;76.7207;931.4636;;;;
2019/12/13 04:43:40;;;;;;;4;3.4;;;;;;;1.52;76.14941;931.3915;;;;
2019/12/13 04:46:05;;;;;;;4.3;3.5;;;;;;;1.44;76.22852;931.4127;;;;
2019/12/13 04:48:30;;;;;;;3.9;3.5;;;;;;;1.15;76.93164;931.4344;;;;
2019/12/13 04:50:55;;;;;;;4.9;3.6;;;;;;;0.91;78.52539;931.1438;;;;
2019/12/13 04:53:20;;;;;;;4.2;3.3;;;;;;;0.98;78.50586;931.204;;;;
2019/12/13 04:55:45;;;;;;;5.2;3.2;;;;;;;0.99;78.85156;931.2213;;;;
2019/12/13 04:58:10;;;;;;;4.1;3.3;;;;;;;1.16;77.96484;931.1935;;;;
2019/12/13 05:00:35;;;;;;;3.4;3.1;;;;;;;1.38;77.07617;931.2283;;;;
2019/12/13 05:03:03;;;;;;;3.8;3.4;;;;;;;1.49;77.02832;931.1342;;;;
2019/12/13 05:06:49;;;;;;;4.9;3.4;;;;;;;1.64;76.67676;931.0266;;;;
2019/12/13 05:07:55;;;;;;;4.6;3.6;;;;;;;1.35;76.88965;930.9727;;;;
2019/12/13 05:10:16;;;;;;;4.5;3.6;;;;;;;1.32;76.92969;930.9504;;;;
2019/12/13 05:12:41;;;;;;;4.5;3.7;;;;;;;1.32;77.02148;930.8625;;;;
2019/12/13 05:15:06;;;;;;;5;3.5;;;;;;;1.37;77.10938;930.8024;;;;
2019/12/13 05:17:31;;;;;;;4.7;4.2;;;;;;;1.33;77.01074;930.8044;;;;
2019/12/13 05:19:56;;;;;;;4.6;4;;;;;;;1.41;76.80762;930.6973;;;;
2019/12/13 05:22:21;;;;;;;5.8;4.1;;;;;;;1.27;76.96582;930.5005;;;;
2019/12/13 05:24:46;;;;;;;4.7;3.8;;;;;;;1.09;77.27637;930.3853;;;;
2019/12/13 05:27:11;;;;;;;5.5;4.1;;;;;;;1.07;77.82324;930.3186;;;;
2019/12/13 05:29:36;;;;;;;4.3;3.9;;;;;;;0.94;78.17676;930.22;;;;
2019/12/13 05:32:01;;;;;;;5.5;4.4;;;;;;;1.05;78.42676;930.171;;;;
2019/12/13 05:34:27;;;;;;;5.3;4.6;;;;;;;1.32;76.97363;930.088;;;;
2019/12/13 05:36:52;;;;;;;5.9;5.1;;;;;;;1.46;76.59766;930.0312;;;;
2019/12/13 05:39:17;;;;;;;5.6;4.8;;;;;;;1.73;76.03809;929.8951;;;;
2019/12/13 05:41:42;;;;;;;7.2;5.5;;;;;;;1.83;75.50586;929.7773;;;;
2019/12/13 05:44:07;;;;;;;7.4;5.5;;;;;;;1.64;75.77051;929.6554;;;;
2019/12/13 05:46:32;;;;;;;5.9;4.6;;;;;;;1.63;75.79199;929.5457;;;;
2019/12/13 05:48:57;;;;;;;5.7;4.9;;;;;;;1.74;75.65137;929.4598;;;;
2019/12/13 05:51:22;;;;;;;5.2;4.7;;;;;;;1.88;74.60645;929.3114;;;;
2019/12/13 05:53:48;;;;;;;5.7;5;;;;;;;1.56;75.19336;929.28;;;;
2019/12/13 05:56:13;;;;;;;6.2;5.4;;;;;;;1.25;76.41211;929.2294;;;;
2019/12/13 05:58:38;;;;;;;5.8;5.2;;;;;;;1.23;76.73926;929.142;;;;
2019/12/13 06:01:03;;;;;;;6;5.4;;;;;;;1.38;75.8623;929.1943;;;;
2019/12/13 06:05:53;;;;;;;6.2;5.5;;;;;;;1.65;75.79492;928.9754;;;;
2019/12/13 06:08:18;;;;;;;6.2;5.6;;;;;;;1.81;75.14551;928.9391;;;;
2019/12/13 06:10:43;;;;;;;6.6;5.2;;;;;;;1.79;74.71777;928.7644;;;;
2019/12/13 06:13:08;;;;;;;6.4;5.7;;;;;;;1.82;74.7334;928.6682;;;;
2019/12/13 06:15:34;;;;;;;6.5;5.6;;;;;;;1.83;74.875;928.467;;;;
2019/12/13 06:17:59;;;;;;;6.1;5.5;;;;;;;1.7;74.90723;928.3893;;;;
2019/12/13 06:20:24;;;;;;;6.2;5.6;;;;;;;1.67;74.83496;928.3932;;;;
2019/12/13 06:22:49;;;;;;;6.7;5.7;;;;;;;1.44;75.86035;928.4272;;;;
2019/12/13 06:25:24;;;;;;;7.3;6.4;;;;;;;1.57;75.5293;928.322;;;;
2019/12/13 06:27:49;;;;;;;10.8;8;;;;;;;1.74;74.9834;928.3163;;;;
2019/12/13 06:30:15;;;;;;;9;7;;;;;;;1.65;75.04883;928.2523;;;;
2019/12/13 06:32:40;;;;;;;7.9;6.5;;;;;;;1.57;75.06738;928.1761;;;;
2019/12/13 06:35:05;;;;;;;8.6;6.5;;;;;;;1.54;74.93848;928.092;;;;
2019/12/13 06:37:30;;;;;;;8.8;6;;;;;;;1.73;74.89063;928.0751;;;;
2019/12/13 06:39:55;;;;;;;6.8;6.1;;;;;;;1.56;75.33008;927.8988;;;;
2019/12/13 06:42:20;;;;;;;7.2;6.1;;;;;;;1.55;75.27246;927.7647;;;;
2019/12/13 06:44:45;;;;;;;8.5;6.6;;;;;;;1.56;75.32031;927.7767;;;;
2019/12/13 06:47:10;;;;;;;10.4;6.9;;;;;;;1.32;75.42676;927.7021;;;;
2019/12/13 06:49:36;;;;;;;7.9;6.7;;;;;;;1.39;75.55371;927.7011;;;;
2019/12/13 06:52:01;;;;;;;8.1;6.9;;;;;;;1.55;75.13477;927.6766;;;;
2019/12/13 06:54:26;;;;;;;9.1;7.2;;;;;;;1.42;75.54688;927.7053;;;;
2019/12/13 06:56:51;;;;;;;8.3;7.4;;;;;;;1.45;75.27637;927.6423;;;;
2019/12/13 06:59:17;;;;;;;11.2;7.3;;;;;;;1.18;76.4209;927.5631;;;;
2019/12/13 07:01:42;;;;;;;9.3;7.4;;;;;;;1.18;76.9248;927.6239;;;;
2019/12/13 07:04:07;;;;;;;9.1;7.8;;;;;;;1.11;76.87793;927.4956;;;;
2019/12/13 07:06:56;;;;;;;11.5;7.9;;;;;;;1.24;76.85645;927.4373;;;;
2019/12/13 07:08:57;;;;;;;9.3;7.7;;;;;;;1.17;76.9248;927.3625;;;;
2019/12/13 07:11:42;;;;;;;8.3;7.3;;;;;;;1.18;76.79883;927.322;;;;
2019/12/13 07:13:47;;;;;;;9;7.4;;;;;;;1.43;76.18164;927.307;;;;
2019/12/13 07:16:12;;;;;;;10.2;7.4;;;;;;;1.42;75.83398;927.2608;;;;
2019/12/13 07:18:37;;;;;;;9.4;7.5;;;;;;;1.52;75.7959;927.2059;;;;
2019/12/13 07:21:02;;;;;;;10.5;8.2;;;;;;;1.48;75.47754;927.2195;;;;
2019/12/13 07:23:27;;;;;;;10.3;8.4;;;;;;;1.26;76.89551;927.0989;;;;
2019/12/13 07:25:52;;;;;;;10;8.7;;;;;;;1.34;76.74902;927.055;;;;
2019/12/13 07:28:17;;;;;;;9.8;8.8;;;;;;;1.29;77.28809;927.0374;;;;
2019/12/13 07:30:43;;;;;;;11.1;9.5;;;;;;;1.14;77.45801;927.063;;;;
2019/12/13 07:33:08;;;;;;;11.4;9.4;;;;;;;1.14;77.84766;926.9937;;;;
2019/12/13 07:35:33;;;;;;;11.1;9.2;;;;;;;1.28;77.58691;927.077;;;;
2019/12/13 07:37:58;;;;;;;10.9;9.1;;;;;;;1.51;76.2041;927.0558;;;;
2019/12/13 07:40:23;;;;;;;10.3;9;;;;;;;1.68;75.91406;927.0729;;;;
2019/12/13 07:42:48;;;;;;;10.1;8.6;;;;;;;1.85;75.2334;926.9627;;;;
2019/12/13 07:45:13;;;;;;;12.7;9.2;;;;;;;1.73;75.8418;926.8974;;;;
2019/12/13 07:47:38;;;;;;;12.5;9.3;;;;;;;1.64;75.42578;927.0711;;;;
2019/12/13 07:50:04;;;;;;;10.5;8.8;;;;;;;1.85;75.72754;926.873;;;;
2019/12/13 07:52:29;;;;;;;11.9;9.2;;;;;;;1.91;75.72754;926.9883;;;;
2019/12/13 07:54:54;;;;;;;10.8;8.5;;;;;;;1.99;75.18945;927.0159;;;;
2019/12/13 07:57:19;;;;;;;9.5;7.6;;;;;;;2.09;75.13672;926.7595;;;;
2019/12/13 07:59:45;;;;;;;9.3;7.2;;;;;;;1.62;76.63965;926.7507;;;;
2019/12/13 08:02:10;;;;;;;8.8;7;;;;;;;1.9;75.51758;926.7087;;;;
2019/12/13 08:04:35;;;;;;;7.9;6.7;;;;;;;1.78;74.77344;926.6039;;;;
2019/12/13 08:07:00;;;;;;;8.8;6.5;;;;;;;1.78;74.75;926.6465;;;;
2019/12/13 08:09:25;;;;;;;7.4;6.6;;;;;;;1.93;74.04199;926.6786;;;;
2019/12/13 08:11:51;;;;;;;13.1;8.3;;;;;;;2.3;78.68164;926.653;;;;
2019/12/13 08:14:16;;;;;;;8.5;6.6;;;;;;;2.4;73.62891;926.5328;;;;
2019/12/13 08:16:41;;;;;;;9.1;6.2;;;;;;;2.37;73.17578;926.3625;;;;
2019/12/13 08:19:06;;;;;;;13.8;7.2;;;;;;;2.27;73.5498;926.2003;;;;
2019/12/13 08:21:31;;;;;;;12.2;7.5;;;;;;;2.15;74.4375;926.0952;;;;
2019/12/13 08:23:56;;;;;;;14.2;7.6;;;;;;;2.13;73.79004;926.1125;;;;
2019/12/13 08:26:21;;;;;;;20.9;8.7;;;;;;;2.19;73.81055;926.0779;;;;
2019/12/13 08:28:46;;;;;;;15.2;8.2;;;;;;;2.08;74.59668;926.1509;;;;
2019/12/13 08:31:12;;;;;;;9.1;7.4;;;;;;;2.07;74.6748;926.1344;;;;
2019/12/13 08:33:37;;;;;;;12.1;8.1;;;;;;;2.24;74.58008;926.1183;;;;
2019/12/13 08:36:02;;;;;;;21.2;9.1;;;;;;;2.36;73.99023;926.1512;;;;
2019/12/13 08:38:27;;;;;;;13.9;8.2;;;;;;;2.27;73.75684;926.1346;;;;
2019/12/13 08:40:52;;;;;;;10;8.2;;;;;;;2.28;74.03223;926.0636;;;;
2019/12/13 08:43:17;;;;;;;12.4;8.2;;;;;;;2.36;72.99023;926.132;;;;
2019/12/13 08:45:42;;;;;;;10.5;8.5;;;;;;;2.15;73.4248;926.2759;;;;
2019/12/13 08:48:08;;;;;;;11.2;9;;;;;;;2.14;74.03125;926.2747;;;;
2019/12/13 08:50:33;;;;;;;11.4;8.9;;;;;;;1.89;75.0459;926.2963;;;;
2019/12/13 08:52:58;;;;;;;10.4;8.8;;;;;;;2.19;74.36328;926.3318;;;;
2019/12/13 08:55:24;;;;;;;11.2;9.1;;;;;;;2.23;74.17285;926.6066;;;;
2019/12/13 08:57:49;;;;;;;11.4;8.6;;;;;;;2.2;74.33105;926.5388;;;;
2019/12/13 09:00:14;;;;;;;9.4;8.4;;;;;;;2.24;74.58008;926.4662;;;;
2019/12/13 09:02:39;;;;;;;9.5;7.9;;;;;;;2.32;74.21289;926.4767;;;;
2019/12/13 09:05:04;;;;;;;8.7;7.7;;;;;;;2.38;74.45313;926.3929;;;;
2019/12/13 09:07:29;;;;;;;9.5;7.9;;;;;;;2.29;75.08203;926.3642;;;;
2019/12/13 09:09:55;;;;;;;10.5;7.9;;;;;;;2.43;74.86523;926.2338;;;;
2019/12/13 09:12:20;;;;;;;11.6;8.7;;;;;;;2.5;73.58789;926.3212;;;;
2019/12/13 09:14:45;;;;;;;9.1;7.5;;;;;;;2.57;72.79688;926.3188;;;;
2019/12/13 09:17:10;;;;;;;9.1;7.5;;;;;;;2.24;73.73926;926.2213;;;;
2019/12/13 09:19:35;;;;;;;9.8;7.9;;;;;;;2.19;74.31738;926.2758;;;;
2019/12/13 09:22:00;;;;;;;10.1;7.8;;;;;;;2.18;74.49805;926.2036;;;;
2019/12/13 09:24:26;;;;;;;11.2;8.2;;;;;;;2.2;74.85742;926.1208;;;;
2019/12/13 09:26:51;;;;;;;12.3;8.7;;;;;;;2.32;74.48828;926.1064;;;;
2019/12/13 09:29:16;;;;;;;10.4;8.4;;;;;;;2.47;74.1123;926.0457;;;;
2019/12/13 09:31:41;;;;;;;13.1;8.3;;;;;;;2.76;73.57617;926.1976;;;;
2019/12/13 09:34:06;;;;;;;9.8;7.9;;;;;;;2.88;73.60938;926.5111;;;;
2019/12/13 09:36:31;;;;;;;11.1;8.2;;;;;;;3.02;73.40137;926.6839;;;;
2019/12/13 09:38:57;;;;;;;11.8;8.7;;;;;;;3.1;73.07129;926.7141;;;;
2019/12/13 09:41:22;;;;;;;10.5;8.7;;;;;;;3.13;72.67285;926.796;;;;
2019/12/13 09:48:37;;;;;;;10.6;8.5;;;;;;;2.84;73.22168;927.0408;;;;
2019/12/13 09:51:03;;;;;;;11.8;8.7;;;;;;;2.9;74.41992;927.1305;;;;
2019/12/13 09:53:28;;;;;;;11.6;9.2;;;;;;;2.82;74.28906;926.9828;;;;
2019/12/13 09:55:53;;;;;;;14.2;9.4;;;;;;;2.63;75.18848;927.1336;;;;
2019/12/13 09:58:18;;;;;;;12.9;9.3;;;;;;;2.53;75.6084;927.4423;;;;
2019/12/13 10:00:44;;;;;;;11;9.2;;;;;;;2.63;76.04004;927.5356;;;;
2019/12/13 10:03:09;;;;;;;10.8;9;;;;;;;2.66;76.14844;927.5955;;;;
2019/12/13 10:05:34;;;;;;;10.7;8.5;;;;;;;2.6;76.65527;927.5958;;;;
2019/12/13 10:07:59;;;;;;;13.4;9.2;;;;;;;2.62;77.47461;927.7515;;;;
2019/12/13 10:10:24;;;;;;;12.1;8.9;;;;;;;2.76;77.70801;927.8892;;;;
2019/12/13 10:12:49;;;;;;;11.4;8.7;;;;;;;2.65;78.26563;927.9494;;;;
2019/12/13 10:15:15;;;;;;;11.8;9.2;;;;;;;2.63;78.59473;927.9956;;;;
2019/12/13 10:17:40;;;;;;;12.6;8.8;;;;;;;2.68;79.51172;927.9749;;;;
2019/12/13 10:20:05;;;;;;;12;9;;;;;;;2.46;80.19531;927.9786;;;;
2019/12/13 10:22:30;;;;;;;10;8.4;;;;;;;2.48;80.79785;927.9364;;;;
2019/12/13 10:24:55;;;;;;;11.9;8.3;;;;;;;2.55;81.07422;927.8191;;;;
2019/12/13 10:27:20;;;;;;;8.4;7.5;;;;;;;2.5;81.67578;927.86;;;;
2019/12/13 10:29:45;;;;;;;9.6;7.2;;;;;;;2.66;81.34961;927.6548;;;;
2019/12/13 10:32:11;;;;;;;9.5;7;;;;;;;2.64;81.59766;927.5684;;;;
2019/12/13 10:34:36;;;;;;;9.6;7.4;;;;;;;2.5;82.60742;927.5873;;;;
2019/12/13 10:37:01;;;;;;;9.3;7.7;;;;;;;2.53;82.96875;927.5011;;;;
2019/12/13 10:39:26;;;;;;;10.8;7.6;;;;;;;2.63;82.85156;927.4634;;;;
2019/12/13 10:41:51;;;;;;;9.6;7.9;;;;;;;2.65;82.98145;927.5439;;;;
2019/12/13 10:44:16;;;;;;;9.1;7.6;;;;;;;2.63;83.57617;927.5214;;;;
2019/12/13 10:46:41;;;;;;;11.1;8.4;;;;;;;2.7;83.78418;927.5814;;;;
2019/12/13 10:49:06;;;;;;;10;7.7;;;;;;;2.77;83.71777;927.6309;;;;
2019/12/13 10:51:32;;;;;;;8.3;7.3;;;;;;;2.78;84.06641;927.6939;;;;
2019/12/13 10:53:57;;;;;;;9.9;7.4;;;;;;;2.64;84.77246;927.7568;;;;
2019/12/13 10:56:22;;;;;;;10.7;6.4;;;;;;;2.72;84.91699;927.7539;;;;
2019/12/13 10:58:47;;;;;;;5.9;5.3;;;;;;;2.72;85.12402;927.7394;;;;
2019/12/13 11:01:12;;;;;;;5.9;4.5;;;;;;;2.71;85.58105;927.9031;;;;
2019/12/13 11:03:37;;;;;;;7.8;4.4;;;;;;;2.79;85.47168;927.8112;;;;
2019/12/13 11:06:03;;;;;;;5;3.6;;;;;;;2.85;85.55371;927.8926;;;;
2019/12/13 11:08:27;;;;;;;5.3;3.6;;;;;;;2.93;85.45215;927.9509;;;;
2019/12/13 11:10:53;;;;;;;4.4;3.1;;;;;;;2.99;85.43066;927.8233;;;;
2019/12/13 11:13:18;;;;;;;4;2.9;;;;;;;3.12;85.12305;927.8495;;;;
2019/12/13 11:15:43;;;;;;;4.3;2.7;;;;;;;3.21;85.03711;927.8611;;;;
2019/12/13 11:18:08;;;;;;;2.9;2.1;;;;;;;3.25;84.82617;927.8113;;;;
2019/12/13 11:20:33;;;;;;;3.7;2.2;;;;;;;3.44;84.54102;927.8728;;;;
2019/12/13 11:22:58;;;;;;;3.3;2.6;;;;;;;3.52;84.15332;927.8619;;;;
2019/12/13 11:25:24;;;;;;;3.8;2.3;;;;;;;3.62;84.07031;927.8953;;;;
2019/12/13 11:27:49;;;;;;;3.9;2.2;;;;;;;3.66;83.61719;927.9258;;;;
2019/12/13 11:30:14;;;;;;;3.7;2.6;;;;;;;3.79;83.45898;927.92;;;;
2019/12/13 11:32:40;;;;;;;4;2.4;;;;;;;3.92;83.02148;927.9057;;;;
2019/12/13 11:35:05;;;;;;;2.5;2.3;;;;;;;3.98;82.97559;927.9888;;;;
2019/12/13 11:37:30;;;;;;;4.5;2.5;;;;;;;4.09;82.81152;928.0519;;;;
2019/12/13 11:39:55;;;;;;;4;2.6;;;;;;;4.25;82.20703;927.983;;;;
2019/12/13 11:42:20;;;;;;;3.6;2.3;;;;;;;4.3;81.92969;927.9364;;;;
2019/12/13 11:44:45;;;;;;;3.3;2.4;;;;;;;4.52;81.44043;927.9938;;;;
2019/12/13 11:47:10;;;;;;;3.3;2.3;;;;;;;4.53;81.39453;927.8999;;;;
2019/12/13 11:49:35;;;;;;;3.2;2.2;;;;;;;4.76;80.72266;927.9963;;;;
2019/12/13 11:52:00;;;;;;;3.2;1.9;;;;;;;4.76;80.2373;927.9817;;;;
2019/12/13 11:54:26;;;;;;;3.6;2.1;;;;;;;4.91;80.32324;928.2413;;;;
2019/12/13 11:56:51;;;;;;;3.6;2.2;;;;;;;5.24;79.54102;928.1139;;;;
2019/12/13 11:59:16;;;;;;;5.2;2.4;;;;;;;5.41;78.42383;928.1381;;;;
2019/12/13 12:01:47;;;;;;;3.5;2;;;;;;;5.64;78.0957;928.1836;;;;
2019/12/13 12:04:06;;;;;;;2.6;1.7;;;;;;;5.74;77.40723;928.1647;;;;
2019/12/13 12:06:31;;;;;;;3.9;2;;;;;;;5.84;77.43848;928.166;;;;
2019/12/13 12:08:56;;;;;;;4.4;1.9;;;;;;;5.92;76.45508;928.0988;;;;
2019/12/13 12:11:21;;;;;;;5;2.1;;;;;;;6.05;76.9541;928.222;;;;
2019/12/13 12:13:46;;;;;;;4.6;1.9;;;;;;;6;76.91992;928.2791;;;;
2019/12/13 12:16:12;;;;;;;5.4;2;;;;;;;5.84;76.63867;928.3859;;;;
2019/12/13 12:18:37;;;;;;;4.9;1.9;;;;;;;6.02;76.92383;928.2467;;;;
2019/12/13 12:21:02;;;;;;;4.1;1.8;;;;;;;6.19;76.375;928.3225;;;;
2019/12/13 12:25:59;;;;;;;5.5;1.8;;;;;;;6.56;74.88672;928.342;;;;
2019/12/13 12:28:17;;;;;;;3.8;1.5;;;;;;;6.53;73.37109;928.4939;;;;
2019/12/13 12:30:42;;;;;;;4.3;1.6;;;;;;;6.43;74.17676;928.4656;;;;
2019/12/13 12:33:08;;;;;;;3.6;1.5;;;;;;;6.51;73.69336;928.5217;;;;
2019/12/13 12:35:33;;;;;;;3.5;1.4;;;;;;;6.72;73.41602;928.4458;;;;
2019/12/13 12:37:58;;;;;;;3.3;1.4;;;;;;;6.95;73.39648;928.493;;;;
2019/12/13 12:40:27;;;;;;;3.6;1.6;;;;;;;6.68;73;928.6883;;;;
2019/12/13 12:42:52;;;;;;;3.8;1.4;;;;;;;6.63;74.05957;928.5574;;;;
2019/12/13 12:45:17;;;;;;;2.9;1.5;;;;;;;6.62;73.78027;928.5396;;;;
2019/12/13 12:47:42;;;;;;;5.3;1.6;;;;;;;6.56;73.93457;928.6392;;;;
2019/12/13 12:50:07;;;;;;;4.6;1.6;;;;;;;6.52;74.13379;928.5664;;;;
2019/12/13 12:52:32;;;;;;;3.1;1.5;;;;;;;6.49;73.6416;928.5692;;;;
2019/12/13 12:54:57;;;;;;;3.6;1.4;;;;;;;6.36;74.30371;928.7067;;;;
2019/12/13 12:57:22;;;;;;;4.1;1.6;;;;;;;6.36;74.58398;928.7992;;;;
2019/12/13 12:59:47;;;;;;;4.1;1.4;;;;;;;6.19;74.18066;928.6795;;;;
2019/12/13 13:02:12;;;;;;;4.4;1.5;;;;;;;6.34;74.44141;928.8456;;;;
2019/12/13 13:04:37;;;;;;;4;1.5;;;;;;;6.35;73.96582;928.8491;;;;
2019/12/13 13:07:03;;;;;;;3.2;1.4;;;;;;;6.47;73.70898;929.0049;;;;
2019/12/13 13:09:28;;;;;;;3;1.2;;;;;;;6.5;73.30664;929.0173;;;;
2019/12/13 13:11:53;;;;;;;2.9;1.2;;;;;;;6.72;73.68262;929.0105;;;;
2019/12/13 13:14:18;;;;;;;2.9;1.2;;;;;;;6.74;72.14063;929.0463;;;;
2019/12/13 13:16:43;;;;;;;3.4;1.3;;;;;;;6.52;72.4873;929.0219;;;;
2019/12/13 13:19:08;;;;;;;2.8;1.2;;;;;;;6.57;72.55273;929.1177;;;;
2019/12/13 13:21:33;;;;;;;2.3;1.2;;;;;;;6.46;72.71875;929.1316;;;;
2019/12/13 13:23:58;;;;;;;2.4;1.2;;;;;;;6.24;71.75293;929.168;;;;
2019/12/13 13:26:23;;;;;;;3.5;1.3;;;;;;;6.34;72.67578;929.1442;;;;
2019/12/13 13:28:48;;;;;;;2.9;1.2;;;;;;;6.42;72.2832;929.1153;;;;
2019/12/13 13:31:13;;;;;;;3;1.2;;;;;;;6.47;72.5127;929.1492;;;;
2019/12/13 13:33:38;;;;;;;3.3;1.3;;;;;;;6.38;72.90234;929.358;;;;
2019/12/13 13:36:04;;;;;;;3.6;1.4;;;;;;;6.5;71.91309;929.4522;;;;
2019/12/13 13:38:28;;;;;;;2.7;1.1;;;;;;;6.41;72.17773;929.3052;;;;
2019/12/13 13:40:54;;;;;;;2.4;1.1;;;;;;;6.59;71.68555;929.3917;;;;
2019/12/13 13:43:19;;;;;;;3;1.2;;;;;;;6.58;71.21973;929.4422;;;;
2019/12/13 13:45:44;;;;;;;3.9;1.3;;;;;;;6.48;71.49414;929.426;;;;
2019/12/13 13:48:09;;;;;;;3.8;1.2;;;;;;;6.41;71.48242;929.4888;;;;
2019/12/13 13:50:34;;;;;;;3.4;1;;;;;;;6.6;71.1416;929.6345;;;;
2019/12/13 13:52:59;;;;;;;3.8;1.3;;;;;;;6.59;71.39551;929.6705;;;;
2019/12/13 13:55:24;;;;;;;3.5;1.4;;;;;;;6.46;71.68555;929.6741;;;;
2019/12/13 13:57:49;;;;;;;3;1.3;;;;;;;6.39;72.07129;929.7216;;;;
2019/12/13 14:00:15;;;;;;;3.9;1.3;;;;;;;6.49;71.95801;929.7667;;;;
2019/12/13 14:02:40;;;;;;;3.8;1.2;;;;;;;6.54;71.41016;929.843;;;;
2019/12/13 14:05:05;;;;;;;4.3;1.2;;;;;;;6.59;71.12891;929.8116;;;;
2019/12/13 14:07:30;;;;;;;3.6;1.2;;;;;;;6.61;70.5957;929.8628;;;;
2019/12/13 14:09:55;;;;;;;3.7;1.2;;;;;;;6.69;70.85449;929.9113;;;;
2019/12/13 14:12:20;;;;;;;3.7;1.1;;;;;;;6.5;71.05566;929.9522;;;;
2019/12/13 14:14:45;;;;;;;3.4;1.1;;;;;;;6.45;71.10547;929.9689;;;;
2019/12/13 14:17:10;;;;;;;6.1;1.8;;;;;;;6.46;70.98926;930.0037;;;;
2019/12/13 14:19:35;;;;;;;2.3;1.2;;;;;;;6.36;71.3457;929.9906;;;;
2019/12/13 14:22:00;;;;;;;4.8;1.3;;;;;;;6.16;72.30957;930.0639;;;;
2019/12/13 14:24:25;;;;;;;3.3;1.2;;;;;;;6.25;72.38281;930.2011;;;;
2019/12/13 14:26:51;;;;;;;4;1.4;;;;;;;6.21;72.69043;930.2042;;;;
2019/12/13 14:29:16;;;;;;;3.9;1.3;;;;;;;6.13;72.83789;930.2676;;;;
2019/12/13 14:31:51;;;;;;;3.6;1.4;;;;;;;6.15;73.14355;930.3954;;;;
2019/12/13 14:34:08;;;;;;;5.2;1.4;;;;;;;6.12;73.21875;930.3816;;;;
2019/12/13 14:36:31;;;;;;;3.4;1.3;;;;;;;6.1;73.2627;930.5027;;;;
2019/12/13 14:38:56;;;;;;;5.3;1.5;;;;;;;6.08;73.33887;930.5773;;;;
2019/12/13 14:41:23;;;;;;;4.7;2.3;;;;;;;6.04;73.7168;930.6625;;;;